Time;durP1;ratioP1;P1;durP2;ratioP2;P2;SDS_P1;SDS_P2;PMS_P1;PMS_P2;Temp;Humidity;BMP_temperature;BMP_pressure;BME280_temperature;BME280_humidity;BME280_pressure;Samples;Min_cycle;Max_cycle;Signal;HPM_P1;HPM_P2
2023/04/21 00:00:26;;;;;;;21.52;15.00;;;10.40;99.90;;;;;;4948154;28;20058;-78
2023/04/21 00:02:51;;;;;;;21.90;14.60;;;11.10;99.90;;;;;;4966900;28;20058;-76
2023/04/21 00:05:17;;;;;;;20.25;13.63;;;10.70;99.90;;;;;;4969145;28;20047;-78
2023/04/21 00:07:43;;;;;;;16.58;13.02;;;9.00;99.90;;;;;;4962785;28;20054;-77
2023/04/21 00:10:10;;;;;;;20.95;13.35;;;9.00;99.90;;;;;;4946686;28;20064;-79
2023/04/21 00:12:36;;;;;;;20.83;13.65;;;9.00;99.90;;;;;;4948852;29;20062;-79
2023/04/21 00:15:03;;;;;;;17.42;13.38;;;9.00;99.90;;;;;;4965881;28;20105;-79
2023/04/21 00:17:29;;;;;;;18.40;13.27;;;9.00;99.90;;;;;;4950211;28;20057;-78
2023/04/21 00:19:54;;;;;;;23.63;12.60;;;9.00;99.90;;;;;;4946362;28;20043;-77
2023/04/21 00:22:21;;;;;;;15.82;12.57;;;9.00;99.90;;;;;;4945047;28;20086;-77
2023/04/21 00:24:46;;;;;;;18.27;12.73;;;10.20;99.90;;;;;;4959626;28;20490;-78
2023/04/21 00:27:14;;;;;;;23.60;12.82;;;9.00;99.90;;;;;;4964125;28;20086;-77
2023/04/21 00:29:40;;;;;;;22.20;12.85;;;9.60;99.90;;;;;;4964419;28;20086;-78
2023/04/21 00:32:09;;;;;;;23.75;13.60;;;10.60;99.90;;;;;;4965206;28;20101;-77
2023/04/21 00:34:35;;;;;;;18.48;12.60;;;9.00;99.90;;;;;;4963846;28;20074;-80
2023/04/21 00:37:01;;;;;;;17.08;12.85;;;9.00;99.90;;;;;;4961560;28;20407;-78
2023/04/21 00:39:27;;;;;;;25.20;13.13;;;9.00;99.90;;;;;;4968117;28;20046;-77
2023/04/21 00:41:53;;;;;;;17.92;13.05;;;9.00;99.90;;;;;;4938438;28;20077;-78
2023/04/21 00:44:19;;;;;;;22.95;13.82;;;8.90;99.90;;;;;;4963582;28;21533;-76
2023/04/21 00:46:44;;;;;;;21.35;11.93;;;8.80;99.90;;;;;;4962330;28;20158;-76
2023/04/21 00:49:12;;;;;;;17.77;12.32;;;8.90;99.90;;;;;;4946501;28;20058;-77
2023/04/21 00:51:38;;;;;;;17.25;11.80;;;10.50;99.90;;;;;;4946571;28;20039;-77
2023/04/21 00:54:05;;;;;;;16.83;11.77;;;8.90;99.90;;;;;;4931523;28;20058;-77
2023/04/21 00:56:33;;;;;;;21.40;11.60;;;8.90;99.90;;;;;;4943747;28;20047;-77
2023/04/21 00:59:00;;;;;;;17.30;11.60;;;8.80;99.90;;;;;;4962852;28;20051;-78
2023/04/21 01:01:33;;;;;;;19.88;11.32;;;9.30;99.90;;;;;;4946010;28;20171;-77
2023/04/21 01:03:59;;;;;;;17.85;11.52;;;11.20;99.90;;;;;;4947949;28;20080;-77
2023/04/21 01:06:28;;;;;;;19.17;12.63;;;8.80;99.90;;;;;;4964162;28;20039;-77
2023/04/21 01:08:54;;;;;;;22.27;12.20;;;10.90;99.90;;;;;;4963719;28;20047;-78
2023/04/21 01:11:20;;;;;;;22.00;11.98;;;8.80;99.90;;;;;;4953270;28;20046;-78
2023/04/21 01:13:46;;;;;;;16.38;11.32;;;8.80;99.90;;;;;;4947347;28;20051;-78
2023/04/21 01:16:20;;;;;;;18.95;11.50;;;9.70;99.90;;;;;;4968273;28;20053;-78
2023/04/21 01:18:46;;;;;;;18.10;11.65;;;9.10;99.90;;;;;;4967981;28;20121;-78
2023/04/21 01:21:12;;;;;;;16.65;11.20;;;8.80;99.90;;;;;;4964867;28;20050;-79
2023/04/21 01:23:41;;;;;;;18.35;12.02;;;10.30;99.90;;;;;;4962402;28;20446;-78
2023/04/21 01:26:06;;;;;;;16.63;11.75;;;8.80;99.90;;;;;;4961561;28;20043;-76
2023/04/21 01:28:32;;;;;;;18.00;11.93;;;8.70;99.90;;;;;;4947450;28;20057;-76
2023/04/21 01:30:58;;;;;;;16.30;11.52;;;10.30;99.90;;;;;;4964557;28;20098;-76
2023/04/21 01:33:24;;;;;;;15.45;11.30;;;8.70;99.90;;;;;;4960787;28;20047;-76
2023/04/21 01:35:50;;;;;;;16.52;11.88;;;8.70;99.90;;;;;;4963196;28;20043;-77
2023/04/21 01:38:17;;;;;;;22.33;11.57;;;8.70;99.90;;;;;;4957475;28;20058;-77
2023/04/21 01:40:46;;;;;;;18.75;12.43;;;8.60;99.90;;;;;;4932878;28;20058;-76
2023/04/21 01:43:12;;;;;;;19.98;11.05;;;10.70;99.90;;;;;;4968667;28;20043;-77
2023/04/21 01:45:38;;;;;;;15.63;11.05;;;;;;;;;;4944486;29;20126;-77
2023/04/21 01:48:04;;;;;;;21.10;11.63;;;8.70;99.90;;;;;;4945492;28;20066;-76
2023/04/21 01:50:30;;;;;;;16.48;11.20;;;8.60;99.90;;;;;;4960650;28;20047;-77
2023/04/21 01:52:55;;;;;;;22.63;11.85;;;8.60;99.90;;;;;;4970164;28;20051;-76
2023/04/21 01:55:22;;;;;;;18.88;11.23;;;10.30;99.90;;;;;;4961334;28;20053;-76
2023/04/21 01:57:47;;;;;;;15.70;10.77;;;8.60;99.90;;;;;;4960490;28;20498;-77
2023/04/21 02:00:13;;;;;;;17.40;11.05;;;8.60;99.90;;;;;;4949463;28;20057;-76
2023/04/21 02:02:39;;;;;;;17.10;11.80;;;8.60;99.90;;;;;;4960600;28;20775;-76
2023/04/21 02:05:05;;;;;;;15.73;10.45;;;9.20;99.90;;;;;;4944920;28;20080;-76
2023/04/21 02:07:30;;;;;;;13.30;11.07;;;8.60;99.90;;;;;;4960690;28;20086;-76
2023/04/21 02:09:56;;;;;;;16.00;10.77;;;8.50;99.90;;;;;;4945847;28;20086;-77
2023/04/21 02:12:22;;;;;;;19.63;11.65;;;8.50;99.90;;;;;;4961161;28;20046;-76
2023/04/21 02:14:48;;;;;;;21.27;12.57;;;8.50;99.90;;;;;;4964443;28;20050;-77
2023/04/21 02:17:14;;;;;;;16.60;11.18;;;8.40;99.90;;;;;;4947389;28;20094;-76
2023/04/21 02:19:39;;;;;;;18.45;12.02;;;9.00;99.90;;;;;;4944088;28;20125;-76
2023/04/21 02:22:07;;;;;;;20.35;11.88;;;8.50;99.90;;;;;;4962345;28;20055;-77
2023/04/21 02:24:33;;;;;;;17.50;11.57;;;8.50;99.90;;;;;;4960079;28;20043;-77
2023/04/21 02:26:59;;;;;;;15.48;11.70;;;8.40;99.90;;;;;;4960770;28;20134;-76
2023/04/21 02:29:24;;;;;;;21.70;11.23;;;10.90;99.90;;;;;;4961969;28;20209;-77
2023/04/21 02:31:50;;;;;;;18.98;11.50;;;10.00;99.90;;;;;;4961269;28;20049;-76
2023/04/21 02:34:15;;;;;;;16.92;11.55;;;8.40;99.90;;;;;;4961582;28;20067;-76
2023/04/21 02:36:41;;;;;;;15.43;11.18;;;8.40;99.90;;;;;;4961381;28;20046;-76
2023/04/21 02:39:07;;;;;;;18.48;11.10;;;8.40;99.90;;;;;;4933362;28;20173;-76
2023/04/21 02:41:32;;;;;;;19.92;12.25;;;8.40;99.90;;;;;;4944798;28;20042;-77
2023/04/21 02:43:58;;;;;;;20.95;12.10;;;8.50;99.90;;;;;;4966313;28;20323;-77
2023/04/21 02:46:26;;;;;;;18.17;11.40;;;8.40;99.90;;;;;;4963431;28;20066;-76
2023/04/21 02:48:52;;;;;;;19.40;11.52;;;8.40;99.90;;;;;;4960371;28;20051;-77
2023/04/21 02:51:18;;;;;;;14.18;11.05;;;8.40;99.90;;;;;;4960343;28;20517;-77
2023/04/21 02:53:43;;;;;;;19.20;12.90;;;8.40;99.90;;;;;;4960633;28;20047;-77
2023/04/21 02:56:09;;;;;;;19.08;12.93;;;10.40;99.90;;;;;;4960501;28;20043;-77
2023/04/21 02:58:35;;;;;;;17.92;11.25;;;10.30;99.90;;;;;;4962325;28;20073;-77
2023/04/21 03:01:02;;;;;;;19.73;12.13;;;8.30;99.90;;;;;;4943816;28;20141;-77
2023/04/21 03:03:28;;;;;;;17.15;11.70;;;8.30;99.90;;;;;;4944863;28;20105;-77
2023/04/21 03:05:58;;;;;;;16.73;11.80;;;8.30;99.90;;;;;;4960837;28;20054;-77
2023/04/21 03:08:24;;;;;;;26.75;13.25;;;8.30;99.90;;;;;;4958675;28;20078;-77
2023/04/21 03:10:49;;;;;;;19.45;12.38;;;8.30;99.90;;;;;;4959154;28;20089;-77
2023/04/21 03:13:16;;;;;;;20.35;12.73;;;8.40;99.90;;;;;;4948991;28;20050;-77
2023/04/21 03:15:41;;;;;;;17.33;12.13;;;8.20;99.90;;;;;;4966409;28;20055;-77
2023/04/21 03:18:07;;;;;;;17.40;11.63;;;9.50;99.90;;;;;;4951661;28;20054;-77
2023/04/21 03:20:33;;;;;;;19.95;11.80;;;10.00;99.90;;;;;;4968158;28;20049;-77
2023/04/21 03:22:58;;;;;;;18.42;11.98;;;8.50;99.90;;;;;;4969835;28;20502;-77
2023/04/21 03:25:26;;;;;;;25.05;12.15;;;8.20;99.90;;;;;;4965056;28;20053;-77
2023/04/21 03:27:52;;;;;;;22.60;12.13;;;9.20;99.90;;;;;;4950027;28;20399;-77
2023/04/21 03:30:18;;;;;;;15.93;11.30;;;8.20;99.90;;;;;;4944385;28;20418;-77
2023/04/21 03:32:44;;;;;;;17.45;12.55;;;8.10;99.90;;;;;;4948519;28;20050;-77
2023/04/21 03:35:10;;;;;;;16.95;12.55;;;10.50;99.90;;;;;;4951941;28;20601;-77
2023/04/21 03:37:36;;;;;;;19.98;12.30;;;10.60;99.90;;;;;;4948866;28;20497;-77
2023/04/21 03:40:04;;;;;;;17.10;12.25;;;8.20;99.90;;;;;;4960807;28;20126;-77
2023/04/21 03:42:31;;;;;;;19.25;11.38;;;9.50;99.90;;;;;;4964128;28;20394;-77
2023/04/21 03:45:03;;;;;;;19.38;11.40;;;8.10;99.90;;;;;;4946884;28;20526;-77
2023/04/21 03:47:29;;;;;;;20.63;12.68;;;8.10;99.90;;;;;;4964077;28;20498;-77
2023/04/21 03:49:54;;;;;;;19.92;11.50;;;8.00;99.90;;;;;;4952069;28;20053;-77
2023/04/21 03:52:20;;;;;;;19.25;12.07;;;7.20;99.90;;;;;;4948475;28;20047;-77
2023/04/21 03:54:46;;;;;;;17.73;12.27;;;8.00;99.90;;;;;;4953669;28;20047;-77
2023/04/21 03:57:11;;;;;;;20.52;12.07;;;10.10;99.90;;;;;;4961767;28;20054;-77
2023/04/21 03:59:37;;;;;;;16.75;11.40;;;8.10;99.90;;;;;;4968041;28;20550;-77
2023/04/21 04:02:03;;;;;;;17.60;11.75;;;8.00;99.90;;;;;;4961735;28;20055;-76
2023/04/21 04:04:29;;;;;;;16.15;11.35;;;9.40;99.90;;;;;;4939071;28;20047;-77
2023/04/21 04:06:54;;;;;;;19.77;12.70;;;8.00;99.90;;;;;;4960023;28;20046;-77
2023/04/21 04:09:20;;;;;;;15.20;10.93;;;8.00;99.90;;;;;;4962306;28;20082;-77
2023/04/21 04:11:46;;;;;;;18.73;11.77;;;8.20;99.90;;;;;;4959482;28;20141;-76
2023/04/21 04:14:11;;;;;;;19.50;12.30;;;7.70;99.90;;;;;;4960535;28;20051;-77
2023/04/21 04:16:37;;;;;;;19.40;12.20;;;7.80;99.90;;;;;;4946576;28;20510;-77
2023/04/21 04:19:03;;;;;;;19.58;11.68;;;8.00;99.90;;;;;;4957595;28;20525;-77
2023/04/21 04:21:28;;;;;;;14.55;11.40;;;8.00;99.90;;;;;;4944045;28;20447;-77
2023/04/21 04:23:54;;;;;;;18.52;10.40;;;9.80;99.90;;;;;;4945014;28;20534;-77
2023/04/21 04:26:24;;;;;;;19.70;11.77;;;8.40;99.90;;;;;;4958387;28;20067;-77
2023/04/21 04:28:55;;;;;;;21.55;11.70;;;7.80;99.90;;;;;;4959771;28;20051;-77
2023/04/21 04:31:24;;;;;;;18.58;11.85;;;8.00;99.90;;;;;;4960325;28;20119;-77
2023/04/21 04:33:53;;;;;;;19.10;11.60;;;10.30;99.90;;;;;;4958577;28;20410;-77
2023/04/21 04:36:18;;;;;;;17.25;11.15;;;7.90;99.90;;;;;;4959863;28;20051;-77
2023/04/21 04:38:45;;;;;;;15.52;11.40;;;10.20;99.90;;;;;;4960697;28;20043;-76
2023/04/21 04:41:11;;;;;;;20.00;11.02;;;9.90;99.90;;;;;;4943353;28;20485;-77
2023/04/21 04:43:38;;;;;;;17.20;11.00;;;7.90;99.90;;;;;;4959583;28;20043;-77
2023/04/21 04:46:04;;;;;;;16.08;11.15;;;7.90;99.90;;;;;;4947306;28;20054;-78
2023/04/21 04:48:30;;;;;;;13.75;10.85;;;7.90;99.90;;;;;;4946593;28;20051;-77
2023/04/21 04:50:56;;;;;;;16.40;10.85;;;7.90;99.90;;;;;;4953266;28;20101;-77
2023/04/21 04:53:22;;;;;;;20.70;11.85;;;9.40;99.90;;;;;;4963586;28;20058;-78
2023/04/21 04:55:47;;;;;;;15.57;10.35;;;7.90;99.90;;;;;;4963996;28;20513;-77
2023/04/21 04:58:13;;;;;;;19.52;10.82;;;7.90;99.90;;;;;;4964484;28;20062;-77
2023/04/21 05:00:39;;;;;;;18.20;11.45;;;9.70;99.90;;;;;;4951106;28;20050;-77
2023/04/21 05:03:05;;;;;;;18.02;10.73;;;7.90;99.90;;;;;;4965507;28;20047;-77
2023/04/21 05:05:30;;;;;;;22.80;10.45;;;7.90;99.90;;;;;;4948093;28;20065;-77
2023/04/21 05:07:56;;;;;;;14.77;10.60;;;7.90;99.90;;;;;;4962229;28;20046;-77
2023/04/21 05:10:22;;;;;;;17.33;10.90;;;7.90;99.90;;;;;;4961607;28;20130;-77
2023/04/21 05:12:48;;;;;;;16.95;10.70;;;7.90;99.90;;;;;;4964578;28;20050;-77
2023/04/21 05:15:14;;;;;;;22.52;10.07;;;8.30;99.90;;;;;;4943590;28;20500;-77
2023/04/21 05:17:39;;;;;;;16.55;10.73;;;7.90;99.90;;;;;;4963026;28;20058;-77
2023/04/21 05:20:07;;;;;;;16.67;9.73;;;7.90;99.90;;;;;;4948035;28;20625;-77
2023/04/21 05:22:41;;;;;;;18.08;10.75;;;7.90;99.90;;;;;;4946652;28;20043;-78
2023/04/21 05:25:09;;;;;;;17.50;10.85;;;7.90;99.90;;;;;;4962718;28;20470;-78
2023/04/21 05:27:34;;;;;;;20.17;10.40;;;7.90;99.90;;;;;;4970203;28;20059;-78
2023/04/21 05:30:00;;;;;;;18.27;11.02;;;7.90;99.90;;;;;;4953110;28;20522;-78
2023/04/21 05:32:26;;;;;;;15.30;10.88;;;8.00;99.90;;;;;;4965609;28;20116;-77
2023/04/21 05:34:51;;;;;;;21.55;10.85;;;8.00;99.90;;;;;;4970752;28;20486;-78
2023/04/21 05:37:17;;;;;;;16.58;9.85;;;8.00;99.90;;;;;;4961879;28;20047;-77
2023/04/21 05:39:43;;;;;;;16.83;9.73;;;7.90;99.90;;;;;;4965225;28;20189;-77
2023/04/21 05:42:12;;;;;;;13.73;9.57;;;8.00;99.90;;;;;;4952097;28;20137;-79
2023/04/21 05:44:38;;;;;;;21.85;10.20;;;7.90;99.90;;;;;;4944355;28;20054;-80
2023/04/21 05:47:05;;;;;;;15.13;9.95;;;10.70;99.90;;;;;;4946696;28;20058;-80
2023/04/21 05:49:31;;;;;;;15.95;9.82;;;8.10;99.90;;;;;;4935911;28;20047;-80
2023/04/21 05:51:58;;;;;;;16.95;10.38;;;10.10;99.90;;;;;;4970709;28;20054;-80
2023/04/21 05:54:24;;;;;;;16.90;9.80;;;8.70;99.90;;;;;;4953174;28;20055;-80
2023/04/21 05:57:35;;;;;;;18.30;10.55;;;7.50;99.90;;;;;;4967314;28;20055;-80
2023/04/21 06:00:54;;;;;;;17.13;9.98;;;8.20;99.90;;;;;;4957758;28;20055;-79
2023/04/21 06:03:37;;;;;;;16.60;9.40;;;8.20;99.90;;;;;;4959591;28;20376;-80
2023/04/21 06:06:25;;;;;;;16.88;9.18;;;10.60;99.90;;;;;;4960566;28;20094;-80
2023/04/21 06:09:19;;;;;;;18.08;9.82;;;8.30;99.90;;;;;;4946350;28;20078;-80
2023/04/21 06:11:51;;;;;;;19.20;11.18;;;8.30;99.90;;;;;;4958752;28;20450;-80
2023/04/21 06:14:19;;;;;;;19.85;14.23;;;8.50;99.90;;;;;;4970633;28;20133;-79
2023/04/21 06:16:53;;;;;;;21.38;10.77;;;8.40;99.90;;;;;;4961233;28;20051;-80
2023/04/21 06:19:57;;;;;;;18.83;9.85;;;8.50;99.90;;;;;;4951691;28;20054;-81
2023/04/21 06:22:43;;;;;;;14.27;9.63;;;8.50;99.90;;;;;;4942852;28;20057;-79
2023/04/21 06:25:20;;;;;;;16.90;9.27;;;8.70;99.90;;;;;;4981101;28;20063;-78
2023/04/21 06:27:49;;;;;;;17.27;8.73;;;8.70;99.90;;;;;;4965379;28;20186;-78
2023/04/21 06:30:16;;;;;;;12.73;8.63;;;11.10;99.90;;;;;;4978137;28;20157;-78
2023/04/21 06:32:42;;;;;;;14.15;10.02;;;10.80;99.90;;;;;;4931287;28;20054;-80
2023/04/21 06:35:08;;;;;;;16.63;9.13;;;9.30;99.90;;;;;;4960050;28;20051;-82
2023/04/21 06:37:36;;;;;;;19.05;8.63;;;9.00;99.90;;;;;;4961369;28;20050;-76
2023/04/21 06:40:03;;;;;;;13.82;8.98;;;9.00;99.90;;;;;;4967694;28;20059;-77
2023/04/21 06:42:31;;;;;;;15.52;8.80;;;9.10;99.90;;;;;;4973732;28;20525;-79
2023/04/21 06:45:04;;;;;;;15.28;8.70;;;12.10;99.90;;;;;;4495088;28;10002689;-78
2023/04/21 06:47:29;;;;;;;22.02;9.93;;;9.20;99.90;;;;;;4956239;28;20495;-78
2023/04/21 06:49:55;;;;;;;16.35;9.57;;;11.10;99.90;;;;;;4946458;29;20285;-77
2023/04/21 06:52:21;;;;;;;16.27;9.35;;;10.10;99.90;;;;;;4956438;28;20059;-78
2023/04/21 06:54:46;;;;;;;14.75;9.57;;;10.30;99.90;;;;;;4948826;28;20049;-78
2023/04/21 06:57:14;;;;;;;16.85;8.90;;;9.30;99.90;;;;;;4923236;29;20043;-77
2023/04/21 06:59:40;;;;;;;16.73;9.43;;;11.40;99.90;;;;;;4935884;29;20442;-78
2023/04/21 07:02:08;;;;;;;12.60;9.40;;;11.70;99.90;;;;;;4934709;28;20050;-78
2023/04/21 07:04:33;;;;;;;13.05;8.27;;;11.60;99.90;;;;;;4955392;28;20135;-77
2023/04/21 07:06:59;;;;;;;14.23;9.00;;;9.40;99.90;;;;;;4958592;28;20062;-78
2023/04/21 07:09:27;;;;;;;13.68;9.18;;;9.20;99.90;;;;;;4957721;28;20050;-79
2023/04/21 07:11:54;;;;;;;13.75;9.43;;;11.20;99.90;;;;;;4960571;28;20050;-78
2023/04/21 07:14:21;;;;;;;25.73;10.27;;;9.70;99.90;;;;;;4936397;28;20098;-77
2023/04/21 07:16:50;;;;;;;19.25;9.77;;;9.80;99.90;;;;;;4957941;28;20055;-77
2023/04/21 07:19:15;;;;;;;15.20;9.15;;;11.60;99.90;;;;;;4954606;28;20125;-77
2023/04/21 07:21:41;;;;;;;16.00;8.88;;;9.90;99.90;;;;;;4960925;28;20050;-77
2023/04/21 07:24:07;;;;;;;20.90;9.70;;;9.90;99.90;;;;;;4938116;29;20150;-77
2023/04/21 07:26:33;;;;;;;19.60;9.63;;;10.50;99.90;;;;;;4952139;28;20129;-77
2023/04/21 07:28:59;;;;;;;12.65;8.95;;;12.00;99.90;;;;;;4973214;28;20047;-77
2023/04/21 07:31:24;;;;;;;21.10;10.35;;;10.00;99.90;;;;;;4943499;28;20162;-77
2023/04/21 07:33:53;;;;;;;13.90;9.20;;;10.10;99.90;;;;;;4957765;28;20514;-77
2023/04/21 07:36:19;;;;;;;20.08;8.75;;;10.20;99.90;;;;;;4937686;28;20055;-77
2023/04/21 07:38:44;;;;;;;19.10;9.88;;;10.30;99.90;;;;;;4967243;28;20609;-77
2023/04/21 07:41:11;;;;;;;16.88;9.73;;;10.40;99.90;;;;;;4976509;28;20050;-77
2023/04/21 07:43:37;;;;;;;16.23;8.57;;;11.90;99.90;;;;;;4941836;28;20049;-77
2023/04/21 07:46:04;;;;;;;15.20;9.88;;;10.30;99.90;;;;;;4952263;28;20414;-77
2023/04/21 07:48:29;;;;;;;17.83;9.00;;;10.60;99.90;;;;;;4957537;28;20054;-77
2023/04/21 07:50:57;;;;;;;17.98;9.50;;;12.90;99.90;;;;;;4946627;28;20051;-77
2023/04/21 07:53:23;;;;;;;15.38;8.77;;;10.70;99.90;;;;;;4958197;28;20112;-77
2023/04/21 07:55:49;;;;;;;15.43;9.80;;;10.70;99.90;;;;;;4968429;28;20505;-77
2023/04/21 07:58:15;;;;;;;15.57;7.78;;;12.40;99.90;;;;;;4944692;29;20055;-78
2023/04/21 08:00:41;;;;;;;17.38;8.30;;;11.30;99.90;;;;;;4958859;28;20093;-78
2023/04/21 08:03:07;;;;;;;14.13;8.68;;;10.90;99.90;;;;;;4944653;28;20090;-76
2023/04/21 08:05:33;;;;;;;18.15;8.45;;;11.00;99.90;;;;;;4963607;28;20114;-77
2023/04/21 08:07:59;;;;;;;15.40;9.63;;;11.00;99.90;;;;;;4976913;28;20130;-77
2023/04/21 08:10:24;;;;;;;17.15;9.10;;;12.70;99.90;;;;;;4966490;28;20756;-77
2023/04/21 08:12:50;;;;;;;13.35;9.00;;;13.00;99.90;;;;;;4969271;28;20055;-78
2023/04/21 08:15:16;;;;;;;17.45;7.82;;;11.40;99.90;;;;;;4953260;28;20062;-78
2023/04/21 08:17:41;;;;;;;13.90;9.05;;;12.10;99.90;;;;;;4952433;28;20043;-77
2023/04/21 08:20:08;;;;;;;15.98;8.57;;;11.30;99.90;;;;;;4948702;29;20102;-78
2023/04/21 08:22:36;;;;;;;18.58;8.98;;;11.80;99.90;;;;;;4962934;28;20063;-78
2023/04/21 08:25:04;;;;;;;19.42;8.90;;;11.50;99.90;;;;;;4951005;28;20144;-78
2023/04/21 08:27:30;;;;;;;19.52;9.30;;;11.60;99.90;;;;;;4961853;28;20066;-78
2023/04/21 08:29:56;;;;;;;13.48;7.97;;;12.20;99.90;;;;;;4972525;28;20047;-78
2023/04/21 08:32:25;;;;;;;14.07;8.27;;;12.60;99.90;;;;;;4971613;28;20057;-78
2023/04/21 08:34:52;;;;;;;13.00;8.25;;;11.90;99.90;;;;;;4973129;28;20051;-79
2023/04/21 08:37:18;;;;;;;15.88;8.80;;;11.90;99.90;;;;;;4964672;28;20047;-78
2023/04/21 08:39:44;;;;;;;13.90;8.57;;;12.10;99.90;;;;;;4945349;28;20051;-79
2023/04/21 08:42:21;;;;;;;14.07;7.80;;;12.50;99.90;;;;;;4928899;29;20086;-79
2023/04/21 08:44:48;;;;;;;15.85;8.43;;;13.60;99.90;;;;;;4964716;28;20062;-79
2023/04/21 08:47:14;;;;;;;14.77;8.50;;;14.10;99.90;;;;;;4963498;28;20047;-79
2023/04/21 08:49:41;;;;;;;11.73;7.88;;;12.40;99.90;;;;;;4953955;28;20062;-78
2023/04/21 08:52:07;;;;;;;15.82;8.82;;;13.80;99.90;;;;;;4927932;29;20044;-80
2023/04/21 08:54:35;;;;;;;18.05;8.23;;;12.60;99.90;;;;;;4948904;28;20082;-76
2023/04/21 08:57:02;;;;;;;18.60;8.13;;;12.60;99.90;;;;;;4970755;28;20043;-78
2023/04/21 08:59:29;;;;;;;16.08;8.63;;;12.70;99.90;;;;;;4943650;28;20055;-77
2023/04/21 09:02:10;;;;;;;20.88;8.05;;;13.00;99.90;;;;;;4964302;28;20051;-78
2023/04/21 09:04:44;;;;;;;12.35;8.30;;;12.80;99.90;;;;;;4961004;28;20058;-76
2023/04/21 09:07:10;;;;;;;;;;;14.00;99.90;;;;;;4962745;28;20086;-76
2023/04/21 09:09:55;;;;;;;16.83;8.20;;;12.90;99.90;;;;;;4947834;28;20028;-77
2023/04/21 09:12:21;;;;;;;16.38;8.55;;;13.00;99.90;;;;;;4932094;28;20118;-75
2023/04/21 09:14:47;;;;;;;20.35;7.95;;;13.00;99.90;;;;;;4949564;28;20056;-75
2023/04/21 09:17:16;;;;;;;12.15;8.02;;;13.10;99.90;;;;;;4928048;29;20058;-75
2023/04/21 09:19:41;;;;;;;17.00;7.28;;;13.20;99.90;;;;;;4961515;28;20059;-79
2023/04/21 09:22:07;;;;;;;13.40;7.57;;;13.30;99.90;;;;;;4962061;28;20063;-78
2023/04/21 09:24:33;;;;;;;15.32;7.68;;;13.40;99.90;;;;;;4967516;28;20047;-77
2023/04/21 09:27:02;;;;;;;17.92;7.97;;;13.40;99.90;;;;;;4930958;28;20058;-77
2023/04/21 09:29:28;;;;;;;16.48;7.90;;;13.50;99.90;;;;;;4945848;28;20510;-77
2023/04/21 09:31:54;;;;;;;11.40;7.28;;;13.90;99.90;;;;;;4934001;29;20050;-78
2023/04/21 09:34:25;;;;;;;14.40;7.30;;;13.70;99.90;;;;;;4947545;29;20063;-78
2023/04/21 09:37:04;;;;;;;13.32;6.93;;;13.80;99.90;;;;;;4962249;28;20043;-77
2023/04/21 09:39:32;;;;;;;11.05;7.60;;;14.00;99.90;;;;;;4961074;28;20106;-77
2023/04/21 09:41:58;;;;;;;16.40;7.57;;;14.10;99.90;;;;;;4963167;28;20046;-77
2023/04/21 09:44:27;;;;;;;17.23;7.70;;;14.20;99.90;;;;;;4978349;28;20055;-77
2023/04/21 09:46:59;;;;;;;11.15;7.68;;;14.40;99.90;;;;;;4959053;28;20130;-77
2023/04/21 09:49:28;;;;;;;17.20;7.43;;;14.40;99.90;;;;;;4949790;28;20165;-77
2023/04/21 09:51:56;;;;;;;17.15;7.75;;;15.30;99.90;;;;;;4923704;28;1101086;-77
2023/04/21 09:54:32;;;;;;;11.82;7.50;;;14.60;99.90;;;;;;4966407;28;20072;-78
2023/04/21 09:57:03;;;;;;;14.98;7.72;;;14.70;99.90;;;;;;4978048;28;20454;-78
2023/04/21 09:59:35;;;;;;;13.82;7.75;;;14.80;99.90;;;;;;4946642;28;20050;-78
2023/04/21 10:02:05;;;;;;;16.85;7.93;;;14.80;99.90;;;;;;4943723;29;20106;-78
2023/04/21 10:04:33;;;;;;;18.58;7.05;;;14.90;99.90;;;;;;4959178;28;20055;-78
2023/04/21 10:06:59;;;;;;;13.50;8.23;;;14.90;99.90;;;;;;4963064;28;20043;-78
2023/04/21 10:09:37;;;;;;;15.38;8.40;;;14.90;99.90;;;;;;4961125;28;20122;-79
2023/04/21 10:12:04;;;;;;;15.10;7.65;;;15.00;99.90;;;;;;4952572;28;20059;-78
2023/04/21 10:14:30;;;;;;;15.13;7.38;;;15.10;99.90;;;;;;4979188;28;20058;-77
2023/04/21 10:17:11;;;;;;;13.32;7.65;;;15.00;99.90;;;;;;4951162;28;20054;-79
2023/04/21 10:19:48;;;;;;;16.30;7.97;;;15.10;99.90;;;;;;4985454;28;20066;-79
2023/04/21 10:22:29;;;;;;;11.82;7.50;;;15.20;99.90;;;;;;4608539;28;10001006;-78
2023/04/21 10:24:57;;;;;;;13.18;8.02;;;15.30;99.90;;;;;;4941118;28;20047;-79
2023/04/21 10:27:39;;;;;;;12.02;8.18;;;15.40;99.90;;;;;;4946514;28;20047;-80
2023/04/21 10:30:38;;;;;;;13.95;7.32;;;15.50;99.90;;;;;;4958209;28;20054;-81
2023/04/21 10:33:05;;;;;;;12.15;7.72;;;15.60;99.90;;;;;;4955216;28;20137;-79
2023/04/21 10:36:00;;;;;;;17.05;7.65;;;15.80;99.90;;;;;;4959838;28;20055;-79
2023/04/21 10:38:44;;;;;;;8.98;7.15;;;15.80;99.90;;;;;;4958570;28;20055;-79
2023/04/21 10:41:29;;;;;;;16.98;8.18;;;16.00;99.90;;;;;;4942001;28;20328;-79
2023/04/21 10:44:18;;;;;;;9.77;7.28;;;16.00;99.90;;;;;;4960383;28;20061;-80
2023/04/21 10:46:47;;;;;;;11.02;7.80;;;16.20;99.90;;;;;;4974354;28;20061;-79
2023/04/21 10:49:27;;;;;;;12.82;7.13;;;16.30;99.90;;;;;;4944687;28;20137;-81
2023/04/21 10:52:05;;;;;;;11.65;7.90;;;16.50;99.90;;;;;;4960282;28;20406;-81
2023/04/21 10:55:07;;;;;;;12.95;6.80;;;16.60;99.90;;;;;;4958035;28;20055;-80
2023/04/21 10:57:34;;;;;;;11.00;6.60;;;16.70;99.90;;;;;;4929798;28;20052;-80
2023/04/21 11:00:00;;;;;;;9.23;6.57;;;16.90;99.90;;;;;;4932325;28;20380;-82
2023/04/21 11:02:29;;;;;;;12.15;7.20;;;18.90;99.90;;;;;;4957916;28;20565;-81
2023/04/21 11:04:55;;;;;;;15.82;7.50;;;18.40;99.90;;;;;;4962584;28;20054;-80
2023/04/21 11:07:25;;;;;;;17.30;7.75;;;17.80;99.90;;;;;;4938226;28;20046;-80
2023/04/21 11:10:05;;;;;;;14.38;6.75;;;17.10;99.90;;;;;;4957898;28;20168;-81
2023/04/21 11:12:32;;;;;;;13.00;6.45;;;17.10;99.90;;;;;;4953639;28;20361;-80
2023/04/21 11:15:01;;;;;;;14.15;6.55;;;17.20;99.90;;;;;;4956521;28;20514;-80
2023/04/21 11:17:27;;;;;;;11.18;6.45;;;17.20;99.90;;;;;;4959646;28;20086;-80
2023/04/21 11:19:54;;;;;;;12.82;6.60;;;17.40;99.90;;;;;;4958362;28;20051;-81
2023/04/21 11:22:30;;;;;;;10.98;6.10;;;19.00;99.90;;;;;;4959813;28;20062;-81
2023/04/21 11:24:57;;;;;;;14.15;6.53;;;17.40;99.90;;;;;;4960359;28;20430;-80
2023/04/21 11:27:25;;;;;;;12.35;6.70;;;17.50;99.90;;;;;;4961583;28;20057;-80
2023/04/21 11:29:53;;;;;;;13.88;6.78;;;17.40;99.90;;;;;;4968791;28;20046;-81
2023/04/21 11:32:22;;;;;;;8.45;5.68;;;16.50;99.90;;;;;;4965882;28;20138;-82
2023/04/21 11:34:47;;;;;;;18.67;6.35;;;17.40;99.90;;;;;;4948189;28;20090;-82
2023/04/21 11:37:24;;;;;;;12.45;5.75;;;17.50;99.90;;;;;;4955523;28;20046;-83
2023/04/21 11:39:56;;;;;;;13.37;5.57;;;17.40;99.90;;;;;;4971783;28;20133;-81
2023/04/21 11:42:21;;;;;;;13.27;5.75;;;17.30;99.90;;;;;;4955286;28;20134;-83
2023/04/21 11:44:48;;;;;;;11.02;5.20;;;17.40;99.90;;;;;;4961517;28;20145;-83
2023/04/21 11:47:26;;;;;;;10.63;5.35;;;17.50;99.90;;;;;;4962472;28;20537;-82
2023/04/21 11:50:00;;;;;;;16.77;4.85;;;17.70;99.90;;;;;;4979841;28;20066;-80
2023/04/21 11:52:38;;;;;;;12.13;4.13;;;17.80;99.90;;;;;;4940651;28;20121;-79
2023/04/21 11:55:10;;;;;;;12.32;4.30;;;18.20;99.90;;;;;;4953916;28;20090;-79
2023/04/21 11:57:39;;;;;;;15.00;3.45;;;18.40;99.90;;;;;;4945725;28;20043;-80
2023/04/21 12:00:07;;;;;;;10.10;3.33;;;18.70;99.90;;;;;;4965205;28;20431;-78
2023/04/21 12:02:33;;;;;;;8.10;3.25;;;18.90;99.90;;;;;;4974627;28;20043;-79
2023/04/21 12:05:07;;;;;;;6.63;3.13;;;19.20;99.90;;;;;;4975543;28;20050;-79
2023/04/21 12:07:37;;;;;;;7.63;3.30;;;19.20;99.90;;;;;;4960115;28;20074;-79
2023/04/21 12:10:15;;;;;;;8.35;3.60;;;19.20;99.00;;;;;;4947954;28;20491;-79
2023/04/21 12:12:45;;;;;;;15.80;3.88;;;19.10;98.50;;;;;;4945144;28;20043;-80
2023/04/21 12:15:16;;;;;;;5.60;2.80;;;19.00;99.20;;;;;;4944972;28;20061;-81
2023/04/21 12:17:46;;;;;;;5.95;3.05;;;18.90;98.80;;;;;;4935619;28;20390;-80
2023/04/21 12:20:15;;;;;;;6.57;3.25;;;19.20;98.40;;;;;;4941899;28;20047;-81
2023/04/21 12:22:40;;;;;;;6.47;2.72;;;19.20;98.10;;;;;;4941494;29;20093;-80
2023/04/21 12:25:07;;;;;;;14.25;3.45;;;19.20;97.60;;;;;;4941011;28;20503;-80
2023/04/21 12:27:33;;;;;;;6.80;3.00;;;19.10;97.40;;;;;;4941639;29;20054;-81
2023/04/21 12:29:59;;;;;;;4.45;2.85;;;19.00;96.80;;;;;;4965474;28;20051;-80
2023/04/21 12:32:25;;;;;;;12.55;3.22;;;18.80;96.20;;;;;;4937448;28;20051;-79
2023/04/21 12:34:56;;;;;;;13.30;3.50;;;18.80;96.50;;;;;;4929288;28;20078;-79
2023/04/21 12:37:22;;;;;;;8.57;3.55;;;18.70;96.50;;;;;;4958757;28;20064;-79
2023/04/21 12:39:50;;;;;;;7.63;2.95;;;18.70;96.70;;;;;;4960297;28;20043;-79
2023/04/21 12:42:16;;;;;;;11.15;3.45;;;18.80;96.60;;;;;;4940975;28;20122;-79
2023/04/21 12:44:41;;;;;;;9.30;3.63;;;19.00;96.40;;;;;;4958242;28;20708;-80